Time;durP1;ratioP1;P1;durP2;ratioP2;P2;SDS_P1;SDS_P2;PMS_P1;PMS_P2;Temp;Humidity;BMP_temperature;BMP_pressure;BME280_temperature;BME280_humidity;BME280_pressure;Samples;Min_cycle;Max_cycle;Signal;HPM_P1;HPM_P2
2022/01/09 00:01:29;;;;;;;1.98;1.02;;;2.20;99.90;;;;;;5017928;28;20048;-77
2022/01/09 00:03:55;;;;;;;3.33;1.40;;;2.10;99.90;;;;;;5018144;28;20385;-76
2022/01/09 00:06:21;;;;;;;1.20;1.00;;;2.10;99.90;;;;;;5018264;28;20529;-77
2022/01/09 00:08:47;;;;;;;0.90;0.77;;;2.20;99.90;;;;;;5018091;28;20026;-77
2022/01/09 00:11:14;;;;;;;1.27;1.00;;;2.10;99.90;;;;;;5018037;28;20438;-78
2022/01/09 00:13:40;;;;;;;2.25;1.00;;;2.20;99.90;;;;;;5018064;28;20022;-77
2022/01/09 00:16:06;;;;;;;4.65;1.00;;;2.20;99.90;;;;;;5013685;28;20401;-78
2022/01/09 00:18:32;;;;;;;1.88;1.05;;;2.30;99.90;;;;;;5016108;28;20026;-78
2022/01/09 00:21:05;;;;;;;1.30;1.00;;;2.30;99.90;;;;;;5014802;28;20040;-78
2022/01/09 00:23:32;;;;;;;0.80;0.80;;;2.20;99.90;;;;;;4999399;28;20041;-77
2022/01/09 00:26:00;;;;;;;1.27;1.00;;;2.10;99.90;;;;;;5014730;28;20492;-78
2022/01/09 00:28:26;;;;;;;1.52;1.02;;;2.10;99.90;;;;;;5014612;28;20026;-78
2022/01/09 00:30:52;;;;;;;1.10;0.90;;;2.10;99.90;;;;;;5014624;28;20045;-78
2022/01/09 00:33:22;;;;;;;1.42;0.90;;;2.10;99.90;;;;;;5014590;28;20466;-76
2022/01/09 00:35:49;;;;;;;1.00;0.90;;;2.00;99.90;;;;;;5014546;28;20046;-77
2022/01/09 00:38:15;;;;;;;1.38;0.80;;;2.10;99.90;;;;;;5015807;28;20021;-77
2022/01/09 00:40:41;;;;;;;2.38;1.00;;;2.00;99.90;;;;;;5015726;28;20052;-77
2022/01/09 00:43:09;;;;;;;1.50;0.80;;;2.00;99.90;;;;;;5014412;28;20029;-78
2022/01/09 00:45:35;;;;;;;1.95;1.00;;;2.10;99.90;;;;;;5014945;28;20393;-78
2022/01/09 00:48:01;;;;;;;3.40;1.00;;;2.00;99.90;;;;;;5015868;28;20026;-77
2022/01/09 00:50:27;;;;;;;5.22;0.88;;;2.00;99.90;;;;;;5014313;28;20116;-78
2022/01/09 00:52:53;;;;;;;0.90;0.90;;;2.00;99.90;;;;;;5014190;28;20030;-78
2022/01/09 00:55:18;;;;;;;1.67;0.95;;;2.10;99.90;;;;;;5014175;28;20477;-78
2022/01/09 00:57:45;;;;;;;0.77;0.77;;;2.10;99.90;;;;;;5014447;28;20128;-78
2022/01/09 01:00:11;;;;;;;1.15;0.90;;;2.00;99.90;;;;;;5014063;28;20032;-78
2022/01/09 01:02:37;;;;;;;0.98;0.80;;;2.00;99.90;;;;;;5013901;28;20056;-77
2022/01/09 01:05:05;;;;;;;1.30;0.90;;;1.90;99.90;;;;;;5015441;28;20419;-78
2022/01/09 01:07:30;;;;;;;1.30;0.80;;;2.00;99.90;;;;;;5015146;28;20030;-78
2022/01/09 01:09:57;;;;;;;1.15;0.90;;;2.00;99.90;;;;;;5013949;28;20121;-78
2022/01/09 01:12:27;;;;;;;1.25;0.93;;;2.00;99.90;;;;;;5013907;28;20030;-78
2022/01/09 01:14:52;;;;;;;0.88;0.85;;;2.10;99.90;;;;;;5013761;28;20026;-78
2022/01/09 01:17:20;;;;;;;0.80;0.80;;;2.20;99.90;;;;;;5015000;28;20038;-77
2022/01/09 01:19:46;;;;;;;1.10;0.80;;;2.20;99.90;;;;;;5015028;28;20386;-77
2022/01/09 01:22:12;;;;;;;0.93;0.80;;;2.30;99.90;;;;;;5013745;28;20022;-80
2022/01/09 01:24:39;;;;;;;0.68;0.68;;;2.30;99.90;;;;;;5013927;28;20030;-78
2022/01/09 01:27:05;;;;;;;0.80;0.70;;;2.30;99.90;;;;;;5013215;28;20036;-78
2022/01/09 01:29:31;;;;;;;0.65;0.60;;;2.40;99.90;;;;;;5015163;28;20120;-78
2022/01/09 01:31:57;;;;;;;0.90;0.80;;;2.40;99.90;;;;;;5013820;28;20030;-78
2022/01/09 01:34:22;;;;;;;0.60;0.60;;;2.40;99.90;;;;;;5013493;28;20022;-78
2022/01/09 01:36:48;;;;;;;0.77;0.65;;;2.40;99.90;;;;;;5013420;28;20026;-78
2022/01/09 01:39:14;;;;;;;0.70;0.60;;;2.40;99.90;;;;;;5013367;28;20100;-78
2022/01/09 01:41:40;;;;;;;0.90;0.70;;;2.40;99.90;;;;;;5014847;28;20021;-78
2022/01/09 01:44:10;;;;;;;0.52;0.52;;;2.50;99.90;;;;;;5013347;28;20429;-78
2022/01/09 01:46:37;;;;;;;0.60;0.60;;;2.60;99.90;;;;;;5014494;28;20096;-78
2022/01/09 01:49:03;;;;;;;1.23;0.70;;;2.50;99.90;;;;;;5014003;28;20326;-78
2022/01/09 01:51:30;;;;;;;2.22;0.70;;;2.60;99.90;;;;;;5014481;28;20109;-78
2022/01/09 01:53:57;;;;;;;0.60;0.60;;;2.60;99.90;;;;;;5013509;28;20022;-78
2022/01/09 01:56:23;;;;;;;0.77;0.45;;;2.70;99.90;;;;;;5013100;28;20497;-78
2022/01/09 01:58:50;;;;;;;0.75;0.70;;;2.60;99.90;;;;;;5013074;28;20163;-78
2022/01/09 02:01:17;;;;;;;1.25;0.60;;;2.70;99.90;;;;;;5016625;28;20545;-78
2022/01/09 02:03:43;;;;;;;1.48;0.70;;;2.70;99.90;;;;;;5016184;28;20017;-78
2022/01/09 02:06:12;;;;;;;0.75;0.70;;;2.80;99.90;;;;;;5016328;28;20515;-78
2022/01/09 02:08:37;;;;;;;1.00;0.60;;;2.80;99.90;;;;;;5016034;28;20029;-78
2022/01/09 02:11:03;;;;;;;0.50;0.50;;;2.80;99.90;;;;;;5016004;28;20026;-77
2022/01/09 02:13:29;;;;;;;0.60;0.60;;;2.80;99.90;;;;;;5016059;28;20104;-77
2022/01/09 02:15:58;;;;;;;1.88;0.50;;;2.80;99.90;;;;;;5033750;28;20051;-78
2022/01/09 02:18:24;;;;;;;0.55;0.50;;;2.80;99.90;;;;;;5033695;28;20028;-78
2022/01/09 02:20:52;;;;;;;0.50;0.50;;;2.80;99.90;;;;;;5015897;28;20049;-78
2022/01/09 02:23:19;;;;;;;1.95;0.50;;;2.80;99.90;;;;;;5033626;28;20029;-78
2022/01/09 02:25:46;;;;;;;0.50;0.50;;;2.80;99.90;;;;;;5015857;28;20025;-78
2022/01/09 02:28:15;;;;;;;0.50;0.45;;;2.90;99.90;;;;;;5015753;28;20029;-77
2022/01/09 02:30:41;;;;;;;0.70;0.70;;;2.80;99.90;;;;;;5015772;28;20025;-78
2022/01/09 02:33:10;;;;;;;0.52;0.52;;;2.90;99.90;;;;;;5015663;28;20037;-77
2022/01/09 02:35:37;;;;;;;0.40;0.40;;;2.90;99.90;;;;;;5015712;28;20497;-77
2022/01/09 02:38:04;;;;;;;0.70;0.60;;;3.00;99.90;;;;;;5014985;28;20452;-78
2022/01/09 02:40:30;;;;;;;0.60;0.60;;;3.00;99.90;;;;;;5015638;28;20500;-78
2022/01/09 02:42:56;;;;;;;1.00;0.50;;;3.00;99.90;;;;;;5033341;28;20025;-78
2022/01/09 02:45:24;;;;;;;0.70;0.60;;;3.00;99.90;;;;;;5015587;28;20400;-78
2022/01/09 02:47:52;;;;;;;0.52;0.52;;;3.00;99.90;;;;;;5015646;28;20025;-78
2022/01/09 02:53:01;;;;;;;0.85;0.47;;;2.90;99.90;;;;;;5033209;28;20133;-78
2022/01/09 02:55:29;;;;;;;0.60;0.60;;;2.90;99.90;;;;;;5015521;28;20021;-78
2022/01/09 02:57:57;;;;;;;0.50;0.50;;;2.90;99.90;;;;;;5015407;28;20172;-78
2022/01/09 03:00:28;;;;;;;0.73;0.50;;;2.90;99.90;;;;;;5015329;28;20032;-78
2022/01/09 03:02:55;;;;;;;0.50;0.50;;;3.00;99.90;;;;;;5015165;28;20056;-78
2022/01/09 03:05:21;;;;;;;1.08;0.50;;;2.90;99.90;;;;;;5015235;28;20021;-78
2022/01/09 03:07:47;;;;;;;0.93;0.70;;;2.90;99.90;;;;;;5015259;28;20167;-78
2022/01/09 03:10:17;;;;;;;0.40;0.40;;;2.90;99.90;;;;;;5033250;28;20045;-78
2022/01/09 03:12:42;;;;;;;0.52;0.50;;;2.90;99.90;;;;;;5032993;28;20032;-78
2022/01/09 03:15:09;;;;;;;0.57;0.57;;;2.90;99.90;;;;;;5032960;28;20092;-78
2022/01/09 03:17:35;;;;;;;0.40;0.40;;;2.90;99.90;;;;;;5015256;28;20036;-78
2022/01/09 03:20:03;;;;;;;1.45;0.50;;;3.00;99.90;;;;;;5015181;28;20029;-78
2022/01/09 03:22:29;;;;;;;0.60;0.50;;;3.00;99.90;;;;;;5015286;28;20034;-77
2022/01/09 03:24:55;;;;;;;0.50;0.50;;;3.00;99.90;;;;;;5032895;28;20512;-78
2022/01/09 03:27:21;;;;;;;0.60;0.50;;;3.00;99.90;;;;;;5032818;28;20056;-79
2022/01/09 03:29:46;;;;;;;0.77;0.52;;;2.90;99.90;;;;;;5015091;28;20056;-79
2022/01/09 03:32:12;;;;;;;1.15;0.60;;;2.90;99.90;;;;;;5015137;28;20109;-79
2022/01/09 03:34:38;;;;;;;0.50;0.50;;;2.90;99.90;;;;;;5015116;28;20046;-78
2022/01/09 03:37:04;;;;;;;0.60;0.60;;;2.90;99.90;;;;;;5015124;28;20075;-78
2022/01/09 03:39:30;;;;;;;0.77;0.52;;;2.90;99.90;;;;;;5015039;28;20025;-78
2022/01/09 03:41:58;;;;;;;1.52;0.50;;;3.00;99.90;;;;;;5014998;28;20040;-78
2022/01/09 03:44:25;;;;;;;1.65;0.50;;;3.00;99.90;;;;;;5032753;28;20512;-79
2022/01/09 03:46:50;;;;;;;0.50;0.50;;;3.00;99.90;;;;;;5032634;28;20025;-78
2022/01/09 03:49:16;;;;;;;0.68;0.40;;;3.10;99.90;;;;;;5016291;28;20040;-78
2022/01/09 03:51:44;;;;;;;0.40;0.40;;;3.30;99.90;;;;;;5036500;28;20062;-77
2022/01/09 03:54:10;;;;;;;1.00;0.52;;;3.30;99.90;;;;;;5018870;28;20083;-78
2022/01/09 03:56:36;;;;;;;1.45;0.40;;;3.40;99.90;;;;;;5018584;28;20029;-79
2022/01/09 03:59:02;;;;;;;0.93;0.52;;;3.40;99.90;;;;;;5018530;28;20025;-78
2022/01/09 04:01:28;;;;;;;0.50;0.50;;;3.40;99.90;;;;;;5018312;28;20099;-78
2022/01/09 04:03:54;;;;;;;0.40;0.40;;;3.50;99.90;;;;;;5036267;28;20052;-78
2022/01/09 04:06:20;;;;;;;0.40;0.40;;;3.50;99.90;;;;;;5018316;28;20084;-78
2022/01/09 04:08:47;;;;;;;0.60;0.40;;;3.60;99.90;;;;;;5036139;28;20095;-78
2022/01/09 04:11:19;;;;;;;0.43;0.38;;;3.60;99.90;;;;;;5018329;28;20021;-78
2022/01/09 04:13:45;;;;;;;0.43;0.43;;;3.60;99.90;;;;;;5018250;28;20108;-78
2022/01/09 04:16:10;;;;;;;0.65;0.60;;;3.50;99.90;;;;;;5018227;28;20580;-78
2022/01/09 04:18:36;;;;;;;0.60;0.50;;;3.50;99.90;;;;;;5018275;28;20040;-78
2022/01/09 04:21:02;;;;;;;0.40;0.40;;;3.50;99.90;;;;;;5035894;28;20099;-78
2022/01/09 04:23:28;;;;;;;0.90;0.43;;;3.40;99.90;;;;;;5018409;28;20457;-78
2022/01/09 04:25:54;;;;;;;0.50;0.32;;;3.40;99.90;;;;;;5018092;28;20396;-79
2022/01/09 04:28:20;;;;;;;1.42;0.40;;;3.40;99.90;;;;;;5018075;28;20021;-77
2022/01/09 04:30:46;;;;;;;1.80;0.40;;;3.40;99.90;;;;;;5035961;28;20030;-77
2022/01/09 04:33:11;;;;;;;2.30;0.55;;;3.30;99.90;;;;;;5035649;28;20075;-78
2022/01/09 04:35:39;;;;;;;1.35;0.50;;;3.30;99.90;;;;;;5035901;28;20025;-78
2022/01/09 04:38:05;;;;;;;0.60;0.50;;;3.20;99.90;;;;;;5017888;28;20497;-77
2022/01/09 04:40:31;;;;;;;0.38;0.38;;;3.10;99.90;;;;;;5017713;28;20033;-78
2022/01/09 04:43:00;;;;;;;0.38;0.38;;;3.00;99.90;;;;;;5035786;28;20032;-78
2022/01/09 04:45:28;;;;;;;2.35;0.50;;;3.00;99.90;;;;;;5017829;28;20026;-78
2022/01/09 04:47:55;;;;;;;1.10;0.40;;;2.90;99.90;;;;;;5017572;28;20481;-78
2022/01/09 04:50:27;;;;;;;11.82;3.45;;;2.90;99.90;;;;;;5017541;28;20120;-78
2022/01/09 04:53:01;;;;;;;0.30;0.30;;;2.90;99.90;;;;;;5017663;28;20025;-78
2022/01/09 04:55:28;;;;;;;0.40;0.40;;;2.80;99.90;;;;;;5017574;28;20032;-78
2022/01/09 04:57:55;;;;;;;0.40;0.40;;;2.80;99.90;;;;;;5017657;28;20500;-78
2022/01/09 05:00:21;;;;;;;0.30;0.30;;;2.80;99.90;;;;;;5035003;28;20029;-79
2022/01/09 05:02:47;;;;;;;0.85;0.50;;;2.80;99.90;;;;;;5034584;28;20128;-78
2022/01/09 05:05:13;;;;;;;0.50;0.40;;;2.70;99.90;;;;;;5017248;28;20071;-78
2022/01/09 05:07:40;;;;;;;0.40;0.40;;;2.80;99.90;;;;;;5017153;28;20025;-78
2022/01/09 05:10:07;;;;;;;0.40;0.40;;;2.70;99.90;;;;;;5017200;28;20061;-78
2022/01/09 05:12:34;;;;;;;0.40;0.40;;;2.80;99.90;;;;;;5035187;28;20025;-78
2022/01/09 05:15:01;;;;;;;0.40;0.40;;;2.70;99.90;;;;;;5017106;28;20025;-78
2022/01/09 05:17:27;;;;;;;0.40;0.40;;;2.70;99.90;;;;;;5017014;28;20052;-78
2022/01/09 05:19:57;;;;;;;0.40;0.40;;;2.70;99.90;;;;;;5016981;28;20022;-80
2022/01/09 05:22:28;;;;;;;0.50;0.43;;;2.70;99.90;;;;;;5035333;28;20028;-78
2022/01/09 05:24:57;;;;;;;1.70;0.35;;;2.70;99.90;;;;;;5034730;28;20104;-77
2022/01/09 05:27:24;;;;;;;0.40;0.40;;;2.70;99.90;;;;;;5016771;28;20112;-78
2022/01/09 05:29:51;;;;;;;0.32;0.32;;;2.70;99.90;;;;;;5016847;28;20105;-78
2022/01/09 05:32:17;;;;;;;0.40;0.40;;;2.60;99.90;;;;;;5034512;28;20025;-77
2022/01/09 05:34:42;;;;;;;0.40;0.40;;;2.60;99.90;;;;;;5016734;28;20036;-78
2022/01/09 05:37:08;;;;;;;0.30;0.30;;;2.60;99.90;;;;;;5034703;28;20025;-78
2022/01/09 05:39:36;;;;;;;0.35;0.35;;;2.60;99.90;;;;;;5016638;28;20025;-78
2022/01/09 05:42:06;;;;;;;0.40;0.40;;;2.60;99.90;;;;;;5016660;28;20040;-78
2022/01/09 05:44:32;;;;;;;0.40;0.40;;;2.60;99.90;;;;;;5016522;28;20033;-78
2022/01/09 05:46:59;;;;;;;0.40;0.40;;;2.60;99.90;;;;;;5034169;28;20120;-77
2022/01/09 05:49:25;;;;;;;1.05;0.45;;;2.60;99.90;;;;;;5034216;28;20029;-78
2022/01/09 05:51:50;;;;;;;0.50;0.50;;;2.60;99.90;;;;;;5016307;28;20440;-78
2022/01/09 05:54:16;;;;;;;0.45;0.45;;;2.60;99.90;;;;;;5016356;28;20025;-78
2022/01/09 05:56:42;;;;;;;0.40;0.40;;;2.60;99.90;;;;;;5034078;28;20485;-78
2022/01/09 05:59:07;;;;;;;0.63;0.40;;;2.60;99.90;;;;;;5016188;28;20112;-79
2022/01/09 06:01:34;;;;;;;1.63;0.60;;;2.60;99.90;;;;;;5016282;28;20050;-78
2022/01/09 06:04:00;;;;;;;2.35;0.50;;;2.60;99.90;;;;;;5016105;28;20030;-79
2022/01/09 06:06:26;;;;;;;1.20;0.50;;;2.70;99.90;;;;;;5034012;28;20120;-78
2022/01/09 06:08:51;;;;;;;0.40;0.40;;;2.60;99.90;;;;;;5015989;28;20042;-78
2022/01/09 06:11:17;;;;;;;1.02;0.55;;;2.60;99.90;;;;;;5033777;28;20596;-78
2022/01/09 06:13:43;;;;;;;2.92;0.40;;;2.60;99.90;;;;;;5015006;28;20021;-78
2022/01/09 06:16:09;;;;;;;0.52;0.50;;;2.60;99.90;;;;;;5015966;28;20018;-78
2022/01/09 06:18:34;;;;;;;2.65;0.50;;;2.50;99.90;;;;;;5033563;28;20477;-78
2022/01/09 06:21:00;;;;;;;0.40;0.40;;;2.50;99.90;;;;;;5015998;28;20053;-78
2022/01/09 06:23:26;;;;;;;0.68;0.40;;;2.50;99.90;;;;;;5034031;28;20025;-78
2022/01/09 06:25:54;;;;;;;0.30;0.30;;;2.50;99.90;;;;;;5015878;28;20034;-78
2022/01/09 06:28:20;;;;;;;1.13;0.45;;;2.50;99.90;;;;;;5015833;28;20399;-78
2022/01/09 06:30:46;;;;;;;1.00;0.50;;;2.50;99.90;;;;;;5015488;28;20072;-78
2022/01/09 06:33:12;;;;;;;0.88;0.40;;;2.40;99.90;;;;;;5033505;28;20029;-79
2022/01/09 06:35:39;;;;;;;0.50;0.40;;;2.40;99.90;;;;;;5015754;28;20393;-78
2022/01/09 06:38:06;;;;;;;0.30;0.30;;;2.40;99.90;;;;;;5015868;28;20083;-79
2022/01/09 06:40:32;;;;;;;0.30;0.30;;;2.40;99.90;;;;;;5033429;28;20029;-78
2022/01/09 06:42:59;;;;;;;0.60;0.60;;;2.40;99.90;;;;;;5015657;28;20030;-79
2022/01/09 06:45:26;;;;;;;0.38;0.38;;;2.40;99.90;;;;;;5015723;28;20036;-78
2022/01/09 06:47:56;;;;;;;0.30;0.30;;;2.40;99.90;;;;;;5033328;28;20500;-78
2022/01/09 06:50:22;;;;;;;0.70;0.60;;;2.30;99.90;;;;;;5015541;28;20082;-78
2022/01/09 06:52:48;;;;;;;0.40;0.40;;;2.40;99.90;;;;;;5033259;28;20022;-78
2022/01/09 06:55:14;;;;;;;0.45;0.45;;;2.30;99.90;;;;;;5015548;28;20022;-78
2022/01/09 06:57:40;;;;;;;0.90;0.60;;;2.30;99.90;;;;;;5015590;28;20029;-78
2022/01/09 07:00:08;;;;;;;0.60;0.60;;;2.40;99.90;;;;;;5015407;28;20021;-79
2022/01/09 07:02:35;;;;;;;3.42;0.98;;;2.40;99.90;;;;;;5032940;28;20049;-78
2022/01/09 07:05:00;;;;;;;5.45;1.08;;;2.40;99.90;;;;;;5015305;28;20028;-78
2022/01/09 07:07:26;;;;;;;5.13;1.45;;;2.40;99.90;;;;;;5015373;28;20063;-79
2022/01/09 07:09:52;;;;;;;8.60;1.48;;;2.40;99.90;;;;;;5033043;28;20104;-79
2022/01/09 07:12:20;;;;;;;5.60;1.17;;;2.40;99.90;;;;;;5015371;28;20029;-78
2022/01/09 07:14:46;;;;;;;5.10;1.60;;;2.40;99.90;;;;;;5032985;28;20045;-79
2022/01/09 07:17:12;;;;;;;8.85;1.85;;;2.50;99.90;;;;;;5015280;28;20029;-78
2022/01/09 07:19:38;;;;;;;7.75;1.70;;;2.40;99.90;;;;;;5015338;28;20029;-79
2022/01/09 07:22:07;;;;;;;10.02;1.45;;;2.50;99.90;;;;;;5015249;28;20120;-78
2022/01/09 07:24:33;;;;;;;5.78;1.42;;;2.50;99.90;;;;;;5034442;28;20491;-78
2022/01/09 07:26:59;;;;;;;8.40;1.73;;;2.40;99.90;;;;;;5037176;28;20025;-78
2022/01/09 07:29:25;;;;;;;17.05;2.20;;;2.50;99.90;;;;;;5037154;28;20380;-78
2022/01/09 07:31:51;;;;;;;5.30;1.30;;;2.50;99.90;;;;;;5019148;28;20528;-78
2022/01/09 07:34:20;;;;;;;10.35;1.60;;;2.50;99.90;;;;;;5019042;28;20454;-78
2022/01/09 07:36:47;;;;;;;11.73;1.95;;;2.50;99.90;;;;;;5036838;28;20068;-78
2022/01/09 07:39:13;;;;;;;9.27;1.98;;;2.60;99.90;;;;;;5018945;28;20503;-78
2022/01/09 07:41:39;;;;;;;7.10;1.88;;;2.60;99.90;;;;;;5018958;28;20021;-78
2022/01/09 07:44:05;;;;;;;6.55;1.52;;;2.70;99.90;;;;;;5036611;28;20507;-78
2022/01/09 07:46:31;;;;;;;11.63;4.00;;;2.60;99.90;;;;;;5018799;28;20108;-78
2022/01/09 07:48:57;;;;;;;14.55;3.85;;;2.70;99.90;;;;;;5018618;28;20120;-78
2022/01/09 07:51:23;;;;;;;11.63;2.55;;;2.70;99.90;;;;;;5018685;28;20029;-78
2022/01/09 07:53:48;;;;;;;8.10;1.98;;;2.60;99.90;;;;;;5036727;28;20049;-77
2022/01/09 07:56:14;;;;;;;11.27;2.70;;;2.70;99.90;;;;;;5018609;28;20099;-78
2022/01/09 07:58:40;;;;;;;7.50;2.50;;;2.70;99.90;;;;;;5018511;28;20450;-78
2022/01/09 08:01:06;;;;;;;12.98;2.30;;;2.70;99.90;;;;;;5018315;28;20029;-78
2022/01/09 08:03:32;;;;;;;11.70;1.88;;;2.80;99.90;;;;;;5018873;28;20401;-78
2022/01/09 08:05:57;;;;;;;9.43;2.65;;;2.70;99.90;;;;;;5036171;28;20021;-78
2022/01/09 08:08:23;;;;;;;6.82;1.67;;;2.80;99.90;;;;;;5018337;28;20035;-78
2022/01/09 08:10:49;;;;;;;10.32;2.17;;;2.80;99.90;;;;;;5018284;28;20025;-78
2022/01/09 08:13:14;;;;;;;11.88;1.83;;;2.80;99.90;;;;;;5036030;28;20049;-78
2022/01/09 08:15:40;;;;;;;13.88;2.45;;;2.70;99.90;;;;;;5018165;28;20021;-77
2022/01/09 08:18:06;;;;;;;6.50;1.40;;;2.80;99.90;;;;;;5018180;28;20025;-78
2022/01/09 08:20:32;;;;;;;7.10;1.77;;;2.80;99.90;;;;;;5018149;28;20033;-78
2022/01/09 08:22:58;;;;;;;5.95;1.52;;;2.80;99.90;;;;;;5018122;28;20064;-78
2022/01/09 08:25:24;;;;;;;7.85;1.88;;;2.80;99.90;;;;;;5035887;28;20029;-78
2022/01/09 08:27:51;;;;;;;8.45;1.73;;;2.80;99.90;;;;;;5035713;28;20109;-77
2022/01/09 08:30:19;;;;;;;12.60;1.95;;;2.80;99.90;;;;;;5018014;28;20022;-78
2022/01/09 08:32:46;;;;;;;14.73;3.40;;;2.70;99.90;;;;;;5035714;28;20030;-78
2022/01/09 08:35:12;;;;;;;10.43;2.00;;;2.80;99.90;;;;;;5035149;28;20033;-78
2022/01/09 08:37:41;;;;;;;11.45;1.88;;;2.80;99.90;;;;;;5017243;28;20055;-78
2022/01/09 08:40:11;;;;;;;10.23;2.30;;;2.80;99.90;;;;;;5017801;28;20030;-78
2022/01/09 08:42:36;;;;;;;9.82;2.20;;;2.80;99.90;;;;;;5035504;28;20033;-78
2022/01/09 08:45:04;;;;;;;11.80;2.72;;;2.80;99.90;;;;;;5017761;28;20029;-78
2022/01/09 08:47:29;;;;;;;10.30;2.25;;;2.80;99.90;;;;;;5017537;28;20029;-78
2022/01/09 08:49:55;;;;;;;13.18;2.90;;;2.80;99.90;;;;;;5017655;28;20022;-78
2022/01/09 08:52:21;;;;;;;9.90;2.00;;;2.80;99.90;;;;;;5035367;28;20100;-78
2022/01/09 08:54:46;;;;;;;16.55;2.53;;;2.90;99.90;;;;;;5017570;28;20397;-78
2022/01/09 08:57:12;;;;;;;11.68;2.47;;;3.00;99.90;;;;;;5017404;28;20068;-78
2022/01/09 08:59:38;;;;;;;17.02;6.68;;;3.10;99.90;;;;;;5017464;28;20022;-78
2022/01/09 09:02:04;;;;;;;15.73;4.15;;;3.30;99.90;;;;;;5034969;28;20045;-78
2022/01/09 09:04:29;;;;;;;13.73;3.47;;;3.50;99.90;;;;;;5017306;28;20029;-78
2022/01/09 09:06:55;;;;;;;9.90;4.15;;;3.60;99.90;;;;;;5017147;28;20508;-78
2022/01/09 09:09:21;;;;;;;13.30;3.95;;;3.60;99.90;;;;;;5035075;28;20030;-78
2022/01/09 09:11:48;;;;;;;20.98;4.75;;;3.70;99.90;;;;;;5017289;28;20099;-78
2022/01/09 09:14:14;;;;;;;12.38;3.50;;;3.80;99.90;;;;;;5017193;28;20040;-78
2022/01/09 09:16:40;;;;;;;23.35;4.05;;;3.80;99.90;;;;;;5017113;28;20021;-78
2022/01/09 09:19:06;;;;;;;9.38;2.33;;;3.80;99.90;;;;;;5034839;28;20100;-78
2022/01/09 09:21:32;;;;;;;13.93;3.05;;;4.10;99.90;;;;;;5034765;28;20108;-78
2022/01/09 09:23:57;;;;;;;11.38;2.80;;;4.40;99.90;;;;;;5017015;28;20030;-78
2022/01/09 09:26:23;;;;;;;10.90;2.25;;;4.60;99.90;;;;;;5034695;28;20105;-78
2022/01/09 09:28:49;;;;;;;16.48;3.33;;;4.70;99.90;;;;;;5016796;28;20436;-79
2022/01/09 09:31:15;;;;;;;14.90;2.75;;;4.90;99.90;;;;;;5016855;28;20469;-78
2022/01/09 09:33:41;;;;;;;29.40;12.50;;;4.90;99.90;;;;;;5016818;28;20040;-79
2022/01/09 09:36:06;;;;;;;12.00;3.28;;;4.90;99.90;;;;;;5034716;28;20024;-79
2022/01/09 09:38:32;;;;;;;15.25;5.32;;;5.00;99.90;;;;;;5016641;28;20041;-78
2022/01/09 09:40:59;;;;;;;15.00;4.70;;;4.80;99.90;;;;;;5016533;28;20045;-79
2022/01/09 09:43:25;;;;;;;15.40;5.00;;;4.60;99.90;;;;;;5034339;28;20444;-79
2022/01/09 09:45:51;;;;;;;19.15;4.85;;;4.50;99.90;;;;;;5016567;28;20440;-79
2022/01/09 09:48:17;;;;;;;20.83;6.13;;;4.40;99.90;;;;;;5016259;28;20052;-79
2022/01/09 09:50:44;;;;;;;14.27;4.35;;;4.40;99.90;;;;;;5034159;28;20380;-79
2022/01/09 09:53:09;;;;;;;12.90;3.20;;;4.30;99.90;;;;;;5016460;28;20026;-78
2022/01/09 09:55:35;;;;;;;14.75;5.18;;;4.30;99.90;;;;;;5016414;28;20499;-79
2022/01/09 09:58:01;;;;;;;19.92;4.20;;;4.30;99.90;;;;;;5016311;28;20508;-78
2022/01/09 10:00:27;;;;;;;7.85;2.70;;;4.40;99.90;;;;;;5016286;28;20132;-79
2022/01/09 10:03:00;;;;;;;12.48;2.05;;;4.40;99.90;;;;;;5033804;28;20488;-79
2022/01/09 10:05:36;;;;;;;12.00;4.07;;;4.40;99.90;;;;;;5016104;28;20032;-79
2022/01/09 10:08:10;;;;;;;17.65;4.45;;;4.60;99.90;;;;;;5016131;28;20500;-79
2022/01/09 10:10:37;;;;;;;12.73;3.30;;;4.70;99.90;;;;;;5033879;28;20013;-78
2022/01/09 10:13:15;;;;;;;12.25;2.17;;;4.80;99.90;;;;;;5016083;28;20025;-79
2022/01/09 10:15:58;;;;;;;11.73;2.25;;;4.60;99.90;;;;;;5034064;28;20025;-78
2022/01/09 10:18:40;;;;;;;13.77;4.10;;;4.50;99.90;;;;;;5016075;28;20052;-79
2022/01/09 10:21:26;;;;;;;10.93;3.20;;;4.80;99.90;;;;;;5033649;28;20021;-79
2022/01/09 10:24:00;;;;;;;14.43;3.55;;;5.00;99.90;;;;;;5033697;28;20025;-79
2022/01/09 10:26:26;;;;;;;11.40;2.53;;;5.10;99.90;;;;;;5015773;28;20053;-79
2022/01/09 10:28:52;;;;;;;12.07;2.35;;;4.60;99.90;;;;;;5033393;28;20087;-78
2022/01/09 10:31:19;;;;;;;10.05;2.40;;;4.40;99.90;;;;;;5015773;28;20026;-79
2022/01/09 10:34:06;;;;;;;12.77;2.65;;;4.20;99.90;;;;;;5033399;28;20074;-79
2022/01/09 10:36:42;;;;;;;12.02;2.75;;;4.20;99.90;;;;;;5015700;28;20442;-79
2022/01/09 10:39:13;;;;;;;9.25;2.42;;;4.50;99.90;;;;;;5015728;28;20037;-79
2022/01/09 10:41:51;;;;;;;11.07;2.40;;;4.90;99.90;;;;;;5015600;28;20553;-79
2022/01/09 10:44:21;;;;;;;12.68;2.80;;;5.20;99.90;;;;;;5033278;28;20070;-79
2022/01/09 10:46:58;;;;;;;9.63;3.40;;;5.20;99.90;;;;;;5015507;28;20117;-79
2022/01/09 10:49:34;;;;;;;7.97;2.28;;;5.50;99.90;;;;;;5033783;28;20022;-79
2022/01/09 10:52:19;;;;;;;6.28;2.28;;;5.80;99.90;;;;;;5015532;28;20450;-81
2022/01/09 10:54:47;;;;;;;11.65;2.25;;;6.00;99.90;;;;;;5015439;28;20027;-79
2022/01/09 10:57:15;;;;;;;9.18;2.60;;;5.80;99.90;;;;;;5015268;28;20034;-80
2022/01/09 10:59:41;;;;;;;5.30;1.67;;;6.10;99.90;;;;;;5014641;28;20037;-80
2022/01/09 11:02:09;;;;;;;11.20;2.33;;;6.50;99.90;;;;;;5011706;28;20046;-80
2022/01/09 11:04:35;;;;;;;9.77;2.45;;;6.40;99.90;;;;;;5013305;28;20121;-81
2022/01/09 11:07:01;;;;;;;15.88;3.38;;;6.10;99.90;;;;;;5012990;28;20118;-80
2022/01/09 11:09:29;;;;;;;20.33;6.80;;;5.50;99.90;;;;;;5011926;28;20026;-80
2022/01/09 11:11:55;;;;;;;14.38;4.05;;;5.40;99.90;;;;;;5011880;28;20445;-80
2022/01/09 11:14:23;;;;;;;8.30;1.88;;;5.40;99.90;;;;;;5013115;28;20103;-80
2022/01/09 11:16:54;;;;;;;8.27;2.20;;;5.50;99.90;;;;;;5011790;28;20025;-80
2022/01/09 11:19:25;;;;;;;13.43;4.03;;;5.70;99.90;;;;;;5011869;28;20022;-80
2022/01/09 11:21:52;;;;;;;6.85;2.17;;;6.50;99.90;;;;;;5011734;28;20026;-80
2022/01/09 11:24:42;;;;;;;6.40;1.90;;;6.80;99.90;;;;;;5011737;28;20512;-79
2022/01/09 11:27:15;;;;;;;6.32;1.35;;;6.50;99.90;;;;;;5011673;28;20030;-81
2022/01/09 11:30:20;;;;;;;11.52;2.78;;;5.90;99.90;;;;;;5011691;28;20479;-79
2022/01/09 11:33:07;;;;;;;5.68;1.48;;;5.70;99.90;;;;;;4969372;28;20034;-80
2022/01/09 11:35:39;;;;;;;9.40;2.15;;;5.60;99.90;;;;;;5012913;28;20037;-80
2022/01/09 11:38:12;;;;;;;7.95;2.10;;;5.40;99.90;;;;;;5011558;28;20072;-79
2022/01/09 11:40:39;;;;;;;5.18;1.50;;;5.30;99.90;;;;;;5012919;28;20032;-81
2022/01/09 11:43:13;;;;;;;8.55;1.80;;;5.20;99.90;;;;;;5011402;28;20076;-80
2022/01/09 11:46:02;;;;;;;6.80;1.92;;;5.20;99.90;;;;;;5011517;28;20022;-80
2022/01/09 11:48:50;;;;;;;8.95;2.03;;;5.60;99.90;;;;;;5011404;28;20454;-81
2022/01/09 11:51:18;;;;;;;6.13;2.85;;;6.00;99.90;;;;;;5011558;28;20474;-80
2022/01/09 11:54:04;;;;;;;15.77;3.67;;;6.30;99.90;;;;;;5011414;28;20022;-80
2022/01/09 11:56:41;;;;;;;9.23;3.17;;;6.20;99.90;;;;;;5012597;28;20425;-81
2022/01/09 11:59:25;;;;;;;8.60;2.88;;;6.20;99.90;;;;;;5012725;28;20030;-80
2022/01/09 12:01:56;;;;;;;4.78;1.60;;;6.00;99.90;;;;;;5011205;28;20045;-81
2022/01/09 12:04:31;;;;;;;6.75;1.75;;;5.80;99.90;;;;;;5012956;28;20069;-80
2022/01/09 12:06:57;;;;;;;6.25;1.80;;;5.50;99.90;;;;;;5011188;28;20022;-80
2022/01/09 12:09:41;;;;;;;7.60;1.83;;;5.30;99.90;;;;;;5012578;28;20148;-81
2022/01/09 12:12:08;;;;;;;7.68;1.60;;;5.30;99.90;;;;;;5014951;28;20459;-81
2022/01/09 12:14:53;;;;;;;3.17;1.40;;;5.20;99.90;;;;;;5016400;28;20018;-81
2022/01/09 12:17:22;;;;;;;9.77;2.05;;;5.00;99.90;;;;;;5014872;28;20029;-81
2022/01/09 12:20:13;;;;;;;6.65;1.95;;;5.00;99.90;;;;;;5014812;28;20121;-81
2022/01/09 12:22:53;;;;;;;7.55;1.75;;;5.40;99.90;;;;;;5014703;28;20030;-82
2022/01/09 12:25:25;;;;;;;6.05;1.80;;;5.70;99.90;;;;;;5016236;28;20076;-81
2022/01/09 12:28:08;;;;;;;9.40;1.70;;;6.50;99.90;;;;;;5015800;28;20109;-79
2022/01/09 12:30:47;;;;;;;5.43;1.53;;;7.90;99.90;;;;;;5015878;28;20382;-81
2022/01/09 12:33:40;;;;;;;4.60;1.60;;;9.10;99.90;;;;;;5016027;28;20304;-79
2022/01/09 12:36:08;;;;;;;6.88;1.10;;;10.10;99.90;;;;;;5015567;28;20072;-82
2022/01/09 12:38:42;;;;;;;6.93;1.27;;;10.10;99.90;;;;;;5014334;28;20026;-81
2022/01/09 12:41:15;;;;;;;4.80;1.55;;;9.60;99.90;;;;;;5014390;28;20037;-81
2022/01/09 12:43:41;;;;;;;5.65;1.55;;;9.90;99.90;;;;;;5014693;28;20088;-81
2022/01/09 12:46:14;;;;;;;9.93;2.38;;;9.60;99.90;;;;;;5015473;28;20105;-78
2022/01/09 12:48:40;;;;;;;16.98;3.83;;;8.90;99.90;;;;;;5014148;28;20029;-78
2022/01/09 12:51:13;;;;;;;13.32;3.63;;;8.10;99.90;;;;;;5014370;28;20113;-81
2022/01/09 12:53:47;;;;;;;13.07;3.40;;;7.50;99.90;;;;;;5016028;28;20022;-80
2022/01/09 12:56:34;;;;;;;7.43;2.88;;;7.40;99.90;;;;;;5015931;28;20029;-81
2022/01/09 12:59:09;;;;;;;9.10;2.47;;;7.00;99.90;;;;;;5016017;28;20036;-80
2022/01/09 13:01:41;;;;;;;5.72;1.40;;;8.10;99.90;;;;;;5014171;28;20038;-80
2022/01/09 13:04:14;;;;;;;6.35;2.08;;;9.00;99.90;;;;;;5015762;28;20022;-80